PST,Max TemperatureF,Mean TemperatureF,Min TemperatureF,Max Dew PointF,MeanDew PointF,Min DewpointF,Max Humidity, Mean Humidity, Min Humidity, Max Sea Level PressureIn, Mean Sea Level PressureIn, Min Sea Level PressureIn, Max VisibilityMiles, Mean VisibilityMiles, Min VisibilityMiles, Max Wind SpeedMPH, Mean Wind SpeedMPH, Max Gust SpeedMPH,PrecipitationIn, CloudCover, Events, WindDirDegrees
2012-12-1,51,44,37,35,34,32,85,69,52,30.05,29.97,29.90,10,10,10,25,14,32,0.00,1,,187
2012-12-2,49,40,31,38,35,28,100,81,61,30.06,29.86,29.71,10,10,5,36,18,44,0.15,4,Rain-Thunderstorm,183
2012-12-3,47,35,23,30,26,20,92,65,38,30.31,30.20,30.05,10,10,10,13,6,14,0.00,1,,173
2012-12-4,50,41,31,37,33,29,92,72,52,30.36,30.24,30.13,10,10,10,18,8,26,0.00,6,,190
2012-12-5,52,44,35,38,34,29,92,71,50,30.12,30.06,30.01,10,10,10,16,6,22,0.00,7,,264
2012-12-6,51,39,26,34,29,24,100,71,42,30.11,30.02,29.94,10,10,10,15,5,17,0.00,2,,181
2012-12-7,45,32,19,25,19,14,84,58,31,30.16,30.07,30.01,10,10,10,14,6,18,0.00,0,,272
2012-12-8,47,30,13,18,15,9,88,58,28,30.10,30.02,29.96,10,10,10,17,6,22,0.00,2,,280
2012-12-9,35,25,14,16,13,11,80,59,38,30.38,30.23,30.00,10,10,10,22,9,30,T,3,,333
2012-12-10,46,31,15,25,18,11,80,57,33,30.36,30.25,30.16,10,10,10,22,9,28,0.00,3,,289
2012-12-11,49,32,15,21,17,13,84,54,24,30.17,30.00,29.69,10,10,10,26,11,36,0.00,0,,177
2012-12-12,43,38,33,18,16,15,51,43,34,29.74,29.69,29.62,10,10,10,31,19,43,0.00,1,,148
2012-12-13,40,35,29,30,26,15,92,68,44,29.81,29.76,29.68,10,7,1,23,15,30,0.02,8,Snow,168
2012-12-14,35,30,25,31,28,21,100,88,75,29.79,29.69,29.59,10,6,1,16,4,22,0.26,8,Snow,334
2012-12-15,31,21,11,22,17,9,92,78,63,30.04,29.88,29.79,10,8,2,21,5,21,0.03,6,Snow,270
2012-12-16,35,26,16,27,22,14,88,75,61,30.09,30.00,29.90,10,9,2,45,5,158,0.02,8,Snow,187
2012-12-17,39,33,26,30,26,22,100,77,54,29.95,29.86,29.80,10,7,0,23,15,38,0.10,4,Fog-Snow,215
2012-12-18,31,21,11,27,20,9,100,92,84,29.94,29.78,29.71,10,4,1,20,11,47,0.45,8,Snow,350
2012-12-19,12,-3,-18,5,-6,-20,95,83,70,30.68,30.41,30.00,10,10,10,17,9,20,0.47,0,,175
2012-12-20,29,10,-10,13,1,-14,83,65,46,30.65,30.47,30.24,10,10,10,32,13,112,0.00,0,,178
2012-12-21,37,29,20,16,10,5,52,44,35,30.21,30.12,30.03,10,10,10,24,17,33,0.00,0,,197
2012-12-22,38,31,24,18,13,7,63,48,32,30.05,29.97,29.87,10,10,10,31,19,40,0.00,2,,176
2012-12-23,36,25,14,27,22,13,85,75,64,30.13,29.99,29.82,10,10,9,29,14,38,T,2,Snow,180
2012-12-24,32,13,-6,29,21,-8,92,73,54,30.32,29.91,29.77,10,5,0,28,11,36,0.25,6,Fog-Snow,272
2012-12-25,29,9,-12,19,5,-17,87,65,42,30.46,30.19,29.79,10,9,2,23,10,45,0.03,3,Snow,181
2012-12-26,33,25,16,19,17,10,84,71,58,29.86,29.76,29.70,10,7,1,23,7,26,0.07,8,Snow,193
2012-12-27,28,19,10,20,17,9,92,80,68,30.17,29.96,29.79,10,9,2,13,5,14,0.02,8,Snow,316
2012-12-28,23,10,-3,12,3,-4,95,79,62,30.39,30.24,30.08,10,10,10,13,6,14,0.00,3,,174
2012-12-29,22,11,0,15,8,-3,91,77,62,30.35,30.17,29.92,10,10,10,13,4,15,0.00,6,,212
2012-12-30,23,17,11,17,13,9,96,85,73,30.16,30.03,29.90,10,10,4,18,10,22,0.01,7,Snow,2
2012-12-31,22,6,-10,9,-1,-14,95,74,52,30.50,30.27,30.03,10,10,9,18,5,22,0.00,3,,178